sensor_id;sensor_type;location;lat;lon;timestamp;pressure;altitude;pressure_sealevel;temperature;humidity
66206;BME280;53009;52.490;4.976;2024-01-27T00:03:47;156000;;;5.1;11.8
66206;BME280;53009;52.490;4.976;2024-01-27T00:08:47;156000;;;5.1;11.8
66206;BME280;53009;52.490;4.976;2024-01-27T00:13:47;156000;;;5.1;11.8
66206;BME280;53009;52.490;4.976;2024-01-27T00:18:47;156000;;;5;11.8
66206;BME280;53009;52.490;4.976;2024-01-27T00:23:47;156000;;;4.9;11.8
66206;BME280;53009;52.490;4.976;2024-01-27T00:28:47;156000;;;4.9;11.7
66206;BME280;53009;52.490;4.976;2024-01-27T00:33:47;156000;;;4.8;11.7
66206;BME280;53009;52.490;4.976;2024-01-27T00:38:47;156000;;;4.7;11.8
66206;BME280;53009;52.490;4.976;2024-01-27T00:43:47;156000;;;4.7;11.8
66206;BME280;53009;52.490;4.976;2024-01-27T00:48:47;156000;;;4.6;11.9
66206;BME280;53009;52.490;4.976;2024-01-27T00:53:47;156000;;;4.5;12
66206;BME280;53009;52.490;4.976;2024-01-27T00:58:47;155900;;;4.5;11.9
66206;BME280;53009;52.490;4.976;2024-01-27T01:03:47;155900;;;4.5;12
66206;BME280;53009;52.490;4.976;2024-01-27T01:08:47;155900;;;4.5;12
66206;BME280;53009;52.490;4.976;2024-01-27T01:13:47;155900;;;4.5;12.1
66206;BME280;53009;52.490;4.976;2024-01-27T01:18:47;155900;;;4.5;12.3
66206;BME280;53009;52.490;4.976;2024-01-27T01:23:47;155900;;;4.6;12.6
66206;BME280;53009;52.490;4.976;2024-01-27T01:28:47;155900;;;4.6;12.6
66206;BME280;53009;52.490;4.976;2024-01-27T01:33:47;155900;;;4.6;12.4
66206;BME280;53009;52.490;4.976;2024-01-27T01:38:47;155900;;;4.5;12.4
66206;BME280;53009;52.490;4.976;2024-01-27T01:43:47;155900;;;4.5;12.4
66206;BME280;53009;52.490;4.976;2024-01-27T01:48:47;155900;;;4.4;12.4
66206;BME280;53009;52.490;4.976;2024-01-27T01:53:47;155900;;;4.2;12.4
66206;BME280;53009;52.490;4.976;2024-01-27T01:58:47;155900;;;4.2;12.4
66206;BME280;53009;52.490;4.976;2024-01-27T02:03:51;155900;;;4.1;12.4
66206;BME280;53009;52.490;4.976;2024-01-27T02:08:47;155800;;;4.1;12.5
66206;BME280;53009;52.490;4.976;2024-01-27T02:13:47;155800;;;4.1;12.5
66206;BME280;53009;52.490;4.976;2024-01-27T02:18:47;155800;;;4.1;12.6
66206;BME280;53009;52.490;4.976;2024-01-27T02:23:47;155800;;;4.1;12.9
66206;BME280;53009;52.490;4.976;2024-01-27T02:28:47;155800;;;4.2;13.1
66206;BME280;53009;52.490;4.976;2024-01-27T02:33:47;155800;;;4.2;13.1
66206;BME280;53009;52.490;4.976;2024-01-27T02:38:47;155800;;;4.2;13
66206;BME280;53009;52.490;4.976;2024-01-27T02:43:47;155800;;;4.2;13
66206;BME280;53009;52.490;4.976;2024-01-27T02:48:47;155800;;;4.1;13.2
66206;BME280;53009;52.490;4.976;2024-01-27T02:53:47;155800;;;4.1;13.1
66206;BME280;53009;52.490;4.976;2024-01-27T02:58:47;155800;;;4.1;13.4
66206;BME280;53009;52.490;4.976;2024-01-27T03:03:47;155800;;;4.1;13.4
66206;BME280;53009;52.490;4.976;2024-01-27T03:08:47;155800;;;4.2;13.7
66206;BME280;53009;52.490;4.976;2024-01-27T03:13:47;155800;;;4.1;13.4
66206;BME280;53009;52.490;4.976;2024-01-27T03:18:47;155800;;;4.1;13.3
66206;BME280;53009;52.490;4.976;2024-01-27T03:23:47;155800;;;4;13.2
66206;BME280;53009;52.490;4.976;2024-01-27T03:28:47;155800;;;4;13.5
66206;BME280;53009;52.490;4.976;2024-01-27T03:33:47;155800;;;4;13.9
66206;BME280;53009;52.490;4.976;2024-01-27T03:38:47;155800;;;4;13.7
66206;BME280;53009;52.490;4.976;2024-01-27T03:43:47;155800;;;4;13.7
66206;BME280;53009;52.490;4.976;2024-01-27T03:48:47;155800;;;4.1;13.6
66206;BME280;53009;52.490;4.976;2024-01-27T03:53:47;155800;;;4.1;13.6
66206;BME280;53009;52.490;4.976;2024-01-27T03:58:47;155800;;;4;13.6
66206;BME280;53009;52.490;4.976;2024-01-27T04:03:47;155800;;;4;13.7
66206;BME280;53009;52.490;4.976;2024-01-27T04:08:47;155800;;;4;13.8
66206;BME280;53009;52.490;4.976;2024-01-27T04:13:50;155700;;;3.9;13.9
66206;BME280;53009;52.490;4.976;2024-01-27T04:18:47;155700;;;3.9;14
66206;BME280;53009;52.490;4.976;2024-01-27T04:23:47;155700;;;3.9;14
66206;BME280;53009;52.490;4.976;2024-01-27T04:28:47;155700;;;3.9;13.9
66206;BME280;53009;52.490;4.976;2024-01-27T04:33:50;155700;;;3.9;13.9
66206;BME280;53009;52.490;4.976;2024-01-27T04:38:47;155700;;;3.8;13.7
66206;BME280;53009;52.490;4.976;2024-01-27T04:43:47;155700;;;3.8;13.9
66206;BME280;53009;52.490;4.976;2024-01-27T04:48:47;155700;;;3.8;14
66206;BME280;53009;52.490;4.976;2024-01-27T04:53:47;155700;;;3.6;13.9
66206;BME280;53009;52.490;4.976;2024-01-27T04:58:47;155700;;;3.6;13.9
66206;BME280;53009;52.490;4.976;2024-01-27T05:03:47;155700;;;3.6;13.9
66206;BME280;53009;52.490;4.976;2024-01-27T05:08:47;155700;;;3.6;14.1
66206;BME280;53009;52.490;4.976;2024-01-27T05:13:47;155700;;;3.6;14
66206;BME280;53009;52.490;4.976;2024-01-27T05:18:47;155700;;;3.6;14
66206;BME280;53009;52.490;4.976;2024-01-27T05:23:47;155700;;;3.6;14.1
66206;BME280;53009;52.490;4.976;2024-01-27T05:28:47;155700;;;3.6;14.2
66206;BME280;53009;52.490;4.976;2024-01-27T05:33:47;155700;;;3.6;14.4
66206;BME280;53009;52.490;4.976;2024-01-27T05:38:47;155700;;;3.6;14.3
66206;BME280;53009;52.490;4.976;2024-01-27T05:43:47;155700;;;3.6;14.6
66206;BME280;53009;52.490;4.976;2024-01-27T05:48:47;155700;;;3.7;14.9
66206;BME280;53009;52.490;4.976;2024-01-27T05:53:50;155700;;;3.7;14.7
66206;BME280;53009;52.490;4.976;2024-01-27T05:58:47;155700;;;3.7;15.1
66206;BME280;53009;52.490;4.976;2024-01-27T06:03:47;155700;;;3.7;14.9
66206;BME280;53009;52.490;4.976;2024-01-27T06:08:47;155800;;;3.7;14.9
66206;BME280;53009;52.490;4.976;2024-01-27T06:13:47;155800;;;3.7;15.1
66206;BME280;53009;52.490;4.976;2024-01-27T06:18:47;155800;;;3.7;15.1
66206;BME280;53009;52.490;4.976;2024-01-27T06:23:47;155800;;;3.7;15.2
66206;BME280;53009;52.490;4.976;2024-01-27T06:28:47;155800;;;3.7;15.2
66206;BME280;53009;52.490;4.976;2024-01-27T06:33:47;155800;;;3.7;15.2
66206;BME280;53009;52.490;4.976;2024-01-27T06:38:47;155800;;;3.7;15.2
66206;BME280;53009;52.490;4.976;2024-01-27T06:43:47;155900;;;3.7;14.9
66206;BME280;53009;52.490;4.976;2024-01-27T06:48:47;155900;;;3.6;15
66206;BME280;53009;52.490;4.976;2024-01-27T06:53:47;155900;;;3.6;15.2
66206;BME280;53009;52.490;4.976;2024-01-27T06:58:47;155900;;;3.6;15.2
66206;BME280;53009;52.490;4.976;2024-01-27T07:03:47;155900;;;3.6;15.3
66206;BME280;53009;52.490;4.976;2024-01-27T07:08:47;155900;;;3.6;15.5
66206;BME280;53009;52.490;4.976;2024-01-27T07:13:47;155900;;;3.6;15.3
66206;BME280;53009;52.490;4.976;2024-01-27T07:18:50;155900;;;3.7;15.3
66206;BME280;53009;52.490;4.976;2024-01-27T07:23:47;156000;;;3.7;15.5
66206;BME280;53009;52.490;4.976;2024-01-27T07:28:47;156000;;;3.7;15.4
66206;BME280;53009;52.490;4.976;2024-01-27T07:33:47;156000;;;3.7;15.4
66206;BME280;53009;52.490;4.976;2024-01-27T07:38:47;156000;;;3.7;15.2
66206;BME280;53009;52.490;4.976;2024-01-27T07:43:47;156100;;;3.7;15.4
66206;BME280;53009;52.490;4.976;2024-01-27T07:48:47;156100;;;3.7;15.4
66206;BME280;53009;52.490;4.976;2024-01-27T07:53:47;156100;;;3.8;15.5
66206;BME280;53009;52.490;4.976;2024-01-27T07:58:47;156100;;;3.9;15.4
66206;BME280;53009;52.490;4.976;2024-01-27T08:03:47;156100;;;3.9;15.4
66206;BME280;53009;52.490;4.976;2024-01-27T08:08:48;156100;;;4;15.4
66206;BME280;53009;52.490;4.976;2024-01-27T08:13:47;156100;;;4.1;15.3
66206;BME280;53009;52.490;4.976;2024-01-27T08:18:47;156200;;;4.2;15.3
66206;BME280;53009;52.490;4.976;2024-01-27T08:23:47;156200;;;4.3;15.3
66206;BME280;53009;52.490;4.976;2024-01-27T08:28:47;156200;;;4.4;15.1
66206;BME280;53009;52.490;4.976;2024-01-27T08:33:47;156000;;;4.5;15
66206;BME280;53009;52.490;4.976;2024-01-27T08:38:47;156100;;;4.5;14.9
66206;BME280;53009;52.490;4.976;2024-01-27T08:43:47;156200;;;4.5;14.9
66206;BME280;53009;52.490;4.976;2024-01-27T08:48:47;156200;;;4.6;14.7
66206;BME280;53009;52.490;4.976;2024-01-27T08:53:47;156200;;;4.5;14.5
66206;BME280;53009;52.490;4.976;2024-01-27T08:58:47;156200;;;4.5;14.5
66206;BME280;53009;52.490;4.976;2024-01-27T09:03:47;156200;;;4.5;14.8
66206;BME280;53009;52.490;4.976;2024-01-27T09:08:47;156200;;;4.6;15
66206;BME280;53009;52.490;4.976;2024-01-27T09:13:47;156200;;;4.8;14.6
66206;BME280;53009;52.490;4.976;2024-01-27T09:18:50;156200;;;5;14.6
66206;BME280;53009;52.490;4.976;2024-01-27T09:23:47;156300;;;5.2;13.9
66206;BME280;53009;52.490;4.976;2024-01-27T09:28:47;156300;;;5.3;13.5
66206;BME280;53009;52.490;4.976;2024-01-27T09:33:48;156200;;;5.5;13.5
66206;BME280;53009;52.490;4.976;2024-01-27T09:38:47;156200;;;5.6;12.9
66206;BME280;53009;52.490;4.976;2024-01-27T09:43:47;156200;;;5.7;12.7
66206;BME280;53009;52.490;4.976;2024-01-27T09:48:47;156200;;;5.8;12.5
66206;BME280;53009;52.490;4.976;2024-01-27T09:53:47;156200;;;6;12.2
66206;BME280;53009;52.490;4.976;2024-01-27T09:58:47;156200;;;6;12.1
66206;BME280;53009;52.490;4.976;2024-01-27T10:03:51;156200;;;6.1;12.1
66206;BME280;53009;52.490;4.976;2024-01-27T10:08:53;156200;;;6.2;11.8
66206;BME280;53009;52.490;4.976;2024-01-27T10:13:53;156200;;;6.3;11.6
66206;BME280;53009;52.490;4.976;2024-01-27T10:18:58;156200;;;6.4;11.5
66206;BME280;53009;52.490;4.976;2024-01-27T10:23:48;156200;;;6.4;11.3
66206;BME280;53009;52.490;4.976;2024-01-27T10:28:52;156200;;;6.6;11.3
66206;BME280;53009;52.490;4.976;2024-01-27T10:33:51;156200;;;6.6;11.2
66206;BME280;53009;52.490;4.976;2024-01-27T10:38:47;156200;;;6.8;10.9
66206;BME280;53009;52.490;4.976;2024-01-27T10:43:48;156200;;;6.9;10.8
66206;BME280;53009;52.490;4.976;2024-01-27T10:48:49;156200;;;7;10.7
66206;BME280;53009;52.490;4.976;2024-01-27T10:53:49;156200;;;7.1;10.9
66206;BME280;53009;52.490;4.976;2024-01-27T10:58:48;156200;;;7.1;10.5
66206;BME280;53009;52.490;4.976;2024-01-27T11:03:51;156200;;;7.2;10.4
66206;BME280;53009;52.490;4.976;2024-01-27T11:08:48;156200;;;7.3;10.2
66206;BME280;53009;52.490;4.976;2024-01-27T11:13:48;156100;;;7.4;10.3
66206;BME280;53009;52.490;4.976;2024-01-27T11:18:48;156100;;;7.4;10.1
66206;BME280;53009;52.490;4.976;2024-01-27T11:23:48;156100;;;7.5;10
66206;BME280;53009;52.490;4.976;2024-01-27T11:28:48;156100;;;7.6;10
66206;BME280;53009;52.490;4.976;2024-01-27T11:33:49;156100;;;7.6;9.9
66206;BME280;53009;52.490;4.976;2024-01-27T11:38:48;156100;;;7.5;10
66206;BME280;53009;52.490;4.976;2024-01-27T11:43:51;156100;;;7.5;10
66206;BME280;53009;52.490;4.976;2024-01-27T11:48:48;156200;;;7.6;9.9
66206;BME280;53009;52.490;4.976;2024-01-27T11:53:48;156200;;;7.7;9.7
66206;BME280;53009;52.490;4.976;2024-01-27T11:58:48;156100;;;7.7;9.6
66206;BME280;53009;52.490;4.976;2024-01-27T12:03:48;156100;;;7.8;9.6
66206;BME280;53009;52.490;4.976;2024-01-27T12:08:48;156100;;;7.9;9.4
66206;BME280;53009;52.490;4.976;2024-01-27T12:13:48;156100;;;8;9.2
66206;BME280;53009;52.490;4.976;2024-01-27T12:18:51;156100;;;8.1;9.3
66206;BME280;53009;52.490;4.976;2024-01-27T12:23:49;156100;;;8;9.5
66206;BME280;53009;52.490;4.976;2024-01-27T12:28:48;156100;;;8.1;9.4
66206;BME280;53009;52.490;4.976;2024-01-27T12:33:48;156100;;;8;9.1
66206;BME280;53009;52.490;4.976;2024-01-27T12:38:56;156100;;;8.1;9
66206;BME280;53009;52.490;4.976;2024-01-27T12:43:48;156100;;;8.2;8.9
66206;BME280;53009;52.490;4.976;2024-01-27T12:48:48;156100;;;8.2;8.7
66206;BME280;53009;52.490;4.976;2024-01-27T12:53:48;156100;;;8.2;8.5
66206;BME280;53009;52.490;4.976;2024-01-27T12:58:48;156100;;;8.2;8.5
66206;BME280;53009;52.490;4.976;2024-01-27T13:03:48;156100;;;8.3;8.6
66206;BME280;53009;52.490;4.976;2024-01-27T13:08:48;156100;;;8.2;8.5
66206;BME280;53009;52.490;4.976;2024-01-27T13:13:48;156100;;;8.3;8.6
66206;BME280;53009;52.490;4.976;2024-01-27T13:18:48;156100;;;8.3;8.8
66206;BME280;53009;52.490;4.976;2024-01-27T13:23:48;156100;;;8.2;8.7
66206;BME280;53009;52.490;4.976;2024-01-27T13:28:48;156100;;;8.2;8.8
66206;BME280;53009;52.490;4.976;2024-01-27T13:33:48;156100;;;8.2;9
66206;BME280;53009;52.490;4.976;2024-01-27T13:38:48;156000;;;8.2;8.8
66206;BME280;53009;52.490;4.976;2024-01-27T13:43:48;156000;;;8.2;8.7
66206;BME280;53009;52.490;4.976;2024-01-27T13:48:48;156100;;;8;8.9
66206;BME280;53009;52.490;4.976;2024-01-27T13:53:48;156000;;;8;9
66206;BME280;53009;52.490;4.976;2024-01-27T13:58:48;156000;;;8;8.9
66206;BME280;53009;52.490;4.976;2024-01-27T14:03:48;156000;;;8.1;9
66206;BME280;53009;52.490;4.976;2024-01-27T14:08:48;156000;;;8.1;9
66206;BME280;53009;52.490;4.976;2024-01-27T14:13:48;156000;;;8;9
66206;BME280;53009;52.490;4.976;2024-01-27T14:18:48;156000;;;7.9;9.1
66206;BME280;53009;52.490;4.976;2024-01-27T14:23:48;156000;;;7.9;9.3
66206;BME280;53009;52.490;4.976;2024-01-27T14:28:48;156000;;;7.9;9.3
66206;BME280;53009;52.490;4.976;2024-01-27T14:33:48;156000;;;7.8;9.4
66206;BME280;53009;52.490;4.976;2024-01-27T14:38:48;156000;;;7.8;9.3
66206;BME280;53009;52.490;4.976;2024-01-27T14:43:48;156000;;;7.8;9.4
66206;BME280;53009;52.490;4.976;2024-01-27T14:48:48;156000;;;7.8;9.4
66206;BME280;53009;52.490;4.976;2024-01-27T14:53:48;156000;;;7.7;9.5
66206;BME280;53009;52.490;4.976;2024-01-27T14:58:48;156000;;;7.7;9.5
66206;BME280;53009;52.490;4.976;2024-01-27T15:03:48;156000;;;7.6;9.5
66206;BME280;53009;52.490;4.976;2024-01-27T15:08:48;156000;;;7.6;9.6
66206;BME280;53009;52.490;4.976;2024-01-27T15:13:48;156000;;;7.5;9.7
66206;BME280;53009;52.490;4.976;2024-01-27T15:18:48;156000;;;7.5;9.6
66206;BME280;53009;52.490;4.976;2024-01-27T15:23:48;156000;;;7.5;9.7
66206;BME280;53009;52.490;4.976;2024-01-27T15:28:48;156000;;;7.4;9.6
66206;BME280;53009;52.490;4.976;2024-01-27T15:33:48;156000;;;7.3;9.6
66206;BME280;53009;52.490;4.976;2024-01-27T15:38:48;156000;;;7.3;9.6
66206;BME280;53009;52.490;4.976;2024-01-27T15:43:48;156000;;;7.2;9.6
66206;BME280;53009;52.490;4.976;2024-01-27T15:48:48;156000;;;7.1;9.6
66206;BME280;53009;52.490;4.976;2024-01-27T15:53:48;156000;;;7.2;9.7
66206;BME280;53009;52.490;4.976;2024-01-27T15:58:48;156000;;;7;9.8
66206;BME280;53009;52.490;4.976;2024-01-27T16:03:48;156000;;;7;9.8
66206;BME280;53009;52.490;4.976;2024-01-27T16:08:48;156000;;;6.9;9.9
66206;BME280;53009;52.490;4.976;2024-01-27T16:13:48;156000;;;6.9;10
66206;BME280;53009;52.490;4.976;2024-01-27T16:18:48;156000;;;6.8;10
66206;BME280;53009;52.490;4.976;2024-01-27T16:23:48;156000;;;6.7;10.1
66206;BME280;53009;52.490;4.976;2024-01-27T16:28:48;156000;;;6.7;10.2
66206;BME280;53009;52.490;4.976;2024-01-27T16:33:48;156000;;;6.6;10.4
66206;BME280;53009;52.490;4.976;2024-01-27T16:38:48;155900;;;6.5;10.4
66206;BME280;53009;52.490;4.976;2024-01-27T16:43:48;155900;;;6.5;10.5
66206;BME280;53009;52.490;4.976;2024-01-27T16:48:48;155900;;;6.4;10.5
66206;BME280;53009;52.490;4.976;2024-01-27T16:53:48;155900;;;6.4;10.6
66206;BME280;53009;52.490;4.976;2024-01-27T16:58:48;155900;;;6.4;10.7
66206;BME280;53009;52.490;4.976;2024-01-27T17:03:48;156000;;;6.3;10.8
66206;BME280;53009;52.490;4.976;2024-01-27T17:07:43;155900;;;6.3;10.7
66206;BME280;53009;52.490;4.976;2024-01-27T17:12:43;156000;;;6.3;10.7
66206;BME280;53009;52.490;4.976;2024-01-27T17:17:43;156000;;;6.2;10.8
66206;BME280;53009;52.490;4.976;2024-01-27T17:22:43;156000;;;6.2;10.9
66206;BME280;53009;52.490;4.976;2024-01-27T17:27:43;156000;;;6.1;10.8
66206;BME280;53009;52.490;4.976;2024-01-27T17:32:43;156100;;;6;11
66206;BME280;53009;52.490;4.976;2024-01-27T17:37:43;156100;;;6;11.1
66206;BME280;53009;52.490;4.976;2024-01-27T17:42:43;156100;;;5.9;11.1
66206;BME280;53009;52.490;4.976;2024-01-27T17:47:43;156100;;;5.9;11.2
66206;BME280;53009;52.490;4.976;2024-01-27T17:52:43;156200;;;5.9;11.2
66206;BME280;53009;52.490;4.976;2024-01-27T17:57:43;156200;;;5.9;11.2
66206;BME280;53009;52.490;4.976;2024-01-27T18:02:43;156200;;;5.8;11.2
66206;BME280;53009;52.490;4.976;2024-01-27T18:07:43;156200;;;5.7;11.4
66206;BME280;53009;52.490;4.976;2024-01-27T18:12:43;156200;;;5.8;11.3
66206;BME280;53009;52.490;4.976;2024-01-27T18:17:43;156200;;;5.7;11.4
66206;BME280;53009;52.490;4.976;2024-01-27T18:22:43;156200;;;5.7;11.4
66206;BME280;53009;52.490;4.976;2024-01-27T18:27:43;156200;;;5.7;11.3
66206;BME280;53009;52.490;4.976;2024-01-27T18:32:46;156200;;;5.6;11.5
66206;BME280;53009;52.490;4.976;2024-01-27T18:37:43;156200;;;5.6;11.5
66206;BME280;53009;52.490;4.976;2024-01-27T18:42:43;156200;;;5.5;11.4
66206;BME280;53009;52.490;4.976;2024-01-27T18:47:43;156200;;;5.4;11.5
66206;BME280;53009;52.490;4.976;2024-01-27T18:52:43;156200;;;5.4;11.6
66206;BME280;53009;52.490;4.976;2024-01-27T18:57:43;156200;;;5.3;11.6
66206;BME280;53009;52.490;4.976;2024-01-27T19:02:43;156200;;;5.2;11.6
66206;BME280;53009;52.490;4.976;2024-01-27T19:07:43;156200;;;5.1;11.6
66206;BME280;53009;52.490;4.976;2024-01-27T19:12:43;156100;;;5;11.7
66206;BME280;53009;52.490;4.976;2024-01-27T19:17:43;156100;;;4.9;11.6
66206;BME280;53009;52.490;4.976;2024-01-27T19:22:43;156100;;;4.9;11.7
66206;BME280;53009;52.490;4.976;2024-01-27T19:27:43;156100;;;4.8;11.7
66206;BME280;53009;52.490;4.976;2024-01-27T19:32:43;156100;;;4.7;11.7
66206;BME280;53009;52.490;4.976;2024-01-27T19:37:43;156100;;;4.6;11.9
66206;BME280;53009;52.490;4.976;2024-01-27T19:42:43;156000;;;4.5;11.8
66206;BME280;53009;52.490;4.976;2024-01-27T19:47:43;156000;;;4.4;11.9
66206;BME280;53009;52.490;4.976;2024-01-27T19:52:43;156000;;;4.3;11.9
66206;BME280;53009;52.490;4.976;2024-01-27T19:57:43;156000;;;4.2;12
66206;BME280;53009;52.490;4.976;2024-01-27T20:02:43;156000;;;4.2;12
66206;BME280;53009;52.490;4.976;2024-01-27T20:07:43;156000;;;4.1;12
66206;BME280;53009;52.490;4.976;2024-01-27T20:12:43;156000;;;4.1;12.1
66206;BME280;53009;52.490;4.976;2024-01-27T20:17:43;156000;;;4;12
66206;BME280;53009;52.490;4.976;2024-01-27T20:22:43;156000;;;4.1;12.2
66206;BME280;53009;52.490;4.976;2024-01-27T20:27:43;156000;;;4;12.2
66206;BME280;53009;52.490;4.976;2024-01-27T20:32:43;156000;;;3.9;12.4
66206;BME280;53009;52.490;4.976;2024-01-27T20:37:43;156000;;;3.8;12.4
66206;BME280;53009;52.490;4.976;2024-01-27T20:42:43;156000;;;3.8;12.7
66206;BME280;53009;52.490;4.976;2024-01-27T20:47:43;156000;;;3.7;12.5
66206;BME280;53009;52.490;4.976;2024-01-27T20:52:43;156000;;;3.7;12.5
66206;BME280;53009;52.490;4.976;2024-01-27T20:57:43;156000;;;3.6;12.4
66206;BME280;53009;52.490;4.976;2024-01-27T21:02:43;156000;;;3.5;12.5
66206;BME280;53009;52.490;4.976;2024-01-27T21:07:43;155900;;;3.5;12.6
66206;BME280;53009;52.490;4.976;2024-01-27T21:12:43;155900;;;3.4;12.7
66206;BME280;53009;52.490;4.976;2024-01-27T21:17:43;155900;;;3.4;12.7
66206;BME280;53009;52.490;4.976;2024-01-27T21:22:43;155900;;;3.4;12.7
66206;BME280;53009;52.490;4.976;2024-01-27T21:27:43;155900;;;3.4;12.7
66206;BME280;53009;52.490;4.976;2024-01-27T21:32:43;155900;;;3.5;12.8
66206;BME280;53009;52.490;4.976;2024-01-27T21:37:43;155900;;;3.4;12.8
66206;BME280;53009;52.490;4.976;2024-01-27T21:42:46;155900;;;3.3;12.9
66206;BME280;53009;52.490;4.976;2024-01-27T21:47:43;155900;;;3.3;12.9
66206;BME280;53009;52.490;4.976;2024-01-27T21:52:43;155900;;;3.3;13
66206;BME280;53009;52.490;4.976;2024-01-27T21:57:43;155900;;;3.3;12.9
66206;BME280;53009;52.490;4.976;2024-01-27T22:02:43;155900;;;3.3;13
66206;BME280;53009;52.490;4.976;2024-01-27T22:07:43;155900;;;3.4;13.2
66206;BME280;53009;52.490;4.976;2024-01-27T22:12:43;155900;;;3.4;13.2
66206;BME280;53009;52.490;4.976;2024-01-27T22:17:43;155900;;;3.5;13.3
66206;BME280;53009;52.490;4.976;2024-01-27T22:22:43;155900;;;3.4;13.2
66206;BME280;53009;52.490;4.976;2024-01-27T22:27:43;155900;;;3.3;13.2
66206;BME280;53009;52.490;4.976;2024-01-27T22:32:43;155900;;;3.2;13.2
66206;BME280;53009;52.490;4.976;2024-01-27T22:37:43;155900;;;3.2;13.3
66206;BME280;53009;52.490;4.976;2024-01-27T22:42:43;155900;;;3.1;13.3
66206;BME280;53009;52.490;4.976;2024-01-27T22:47:43;155900;;;3.1;13.4
66206;BME280;53009;52.490;4.976;2024-01-27T22:52:43;155900;;;3.2;13.5
66206;BME280;53009;52.490;4.976;2024-01-27T22:57:43;155900;;;3.2;13.5
66206;BME280;53009;52.490;4.976;2024-01-27T23:02:43;155800;;;3.2;13.4
66206;BME280;53009;52.490;4.976;2024-01-27T23:07:43;155800;;;3.1;13.4
66206;BME280;53009;52.490;4.976;2024-01-27T23:12:43;155800;;;3;13.3
66206;BME280;53009;52.490;4.976;2024-01-27T23:17:43;155800;;;2.9;13.4
66206;BME280;53009;52.490;4.976;2024-01-27T23:22:43;155800;;;2.8;13.5
66206;BME280;53009;52.490;4.976;2024-01-27T23:27:43;155800;;;2.7;13.4
66206;BME280;53009;52.490;4.976;2024-01-27T23:32:43;155800;;;2.7;13.4
66206;BME280;53009;52.490;4.976;2024-01-27T23:37:43;155800;;;2.6;13.4
66206;BME280;53009;52.490;4.976;2024-01-27T23:42:43;155800;;;2.6;13.5
66206;BME280;53009;52.490;4.976;2024-01-27T23:47:43;155800;;;2.6;13.5
66206;BME280;53009;52.490;4.976;2024-01-27T23:52:43;155700;;;2.5;13.5
66206;BME280;53009;52.490;4.976;2024-01-27T23:57:43;155700;;;2.5;13.5
